Flight Track Log - Related Links

Times and Time Zones

All times are in EDT time to prevent confusion due to time zone crossing. See the UPS1122 flight status page for this flight to view local times or setup timezone preferences in your user account.

Time Position Orientation Groundspeed Altitude Reporting Facility
EDT Latitude Longitude Course Direction KTS MPH feet Rate Location/Type
Fri 03:39:43 AM 39.8611 -75.2693 57° Northeast 154 177 900  Level FlightAware ADS-B
Fri 03:39:54 AM 39.8576 -75.2781 243° Southwest 163 188 1,300 1,826 Climbing FlightAware ADS-B
Fri 03:40:06 AM 39.8530 -75.2894 242° Southwest 179 206 1,600 1,565 Climbing FlightAware ADS-B
Fri 03:40:17 AM 39.8487 -75.3002 243° Southwest 191 220 1,900 2,160 Climbing FlightAware ADS-B
Fri 03:40:31 AM 39.8431 -75.3151 244° Southwest 197 227 2,500 2,400 Climbing FlightAware ADS-B
Fri 03:40:42 AM 39.8389 -75.3265 244° Southwest 203 234 2,900 2,143 Climbing FlightAware ADS-B
Fri 03:40:45 AM 39.8376 -75.3298 243° Southwest 206 237 3,000 2,571 Climbing FlightAware ADS-B
Fri 03:40:49 AM 39.8356 -75.3341 239° Southwest 210 242 3,200 2,571 Climbing FlightAware ADS-B
Fri 03:40:52 AM 39.8339 -75.3372 234° Southwest 212 244 3,300 2,571 Climbing FlightAware ADS-B
Fri 03:40:56 AM 39.8313 -75.3408 227° Southwest 215 247 3,500 2,250 Climbing FlightAware ADS-B
Fri 03:41:00 AM 39.8280 -75.3442 218° Southwest 220 253 3,600 1,714 Climbing FlightAware ADS-B
Fri 03:41:03 AM 39.8253 -75.3461 208° Southwest 224 258 3,700 2,000 Climbing FlightAware ADS-B
Fri 03:41:06 AM 39.8219 -75.3480 203° Southwest 229 264 3,800 1,714 Climbing FlightAware ADS-B
Fri 03:41:10 AM 39.8178 -75.3495 196° South 235 270 3,900 1,714 Climbing FlightAware ADS-B
Fri 03:41:13 AM 39.8142 -75.3501 187° South 241 277 4,000 1,714 Climbing FlightAware ADS-B
Fri 03:41:17 AM 39.8104 -75.3502 181° South 247 284 4,100 1,714 Climbing FlightAware ADS-B
Fri 03:41:20 AM 39.8062 -75.3496 174° South 253 291 4,200 1,714 Climbing FlightAware ADS-B
Fri 03:41:24 AM 39.8025 -75.3485 167° South 257 296 4,300 1,714 Climbing FlightAware ADS-B
Fri 03:41:27 AM 39.7989 -75.3467 159° South 261 300 4,400 3,000 Climbing FlightAware ADS-B
Fri 03:41:30 AM 39.7952 -75.3443 154° Southeast 261 300 4,600 3,000 Climbing FlightAware ADS-B
Fri 03:41:33 AM 39.7920 -75.3416 147° Southeast 263 303 4,700 2,571 Climbing FlightAware ADS-B
Fri 03:41:37 AM 39.7886 -75.3379 140° Southeast 264 304 4,900 3,429 Climbing FlightAware ADS-B
Fri 03:41:40 AM 39.7859 -75.3342 134° Southeast 265 305 5,100 3,000 Climbing FlightAware ADS-B
Fri 03:41:43 AM 39.7837 -75.3304 127° Southeast 266 306 5,200 3,000 Climbing FlightAware ADS-B
Fri 03:41:46 AM 39.7816 -75.3261 122° Southeast 268 308 5,400 2,571 Climbing FlightAware ADS-B
Fri 03:41:50 AM 39.7797 -75.3212 117° Southeast 270 311 5,500 1,714 Climbing FlightAware ADS-B
Fri 03:41:53 AM 39.7782 -75.3163 112° Southeast 272 313 5,600 2,000 Climbing FlightAware ADS-B
Fri 03:41:56 AM 39.7771 -75.3109 105° East 275 316 5,700 2,000 Climbing FlightAware ADS-B
Fri 03:41:59 AM 39.7764 -75.3060 101° East 278 320 5,800 1,800 Climbing FlightAware ADS-B
Fri 03:42:06 AM 39.7757 -75.2956 95° East 279 321 6,000 2,700 Climbing FlightAware ADS-B
Fri 03:42:19 AM 39.7756 -75.2722 90° East 283 326 6,700 3,000 Climbing FlightAware ADS-B
Fri 03:42:26 AM 39.7757 -75.2614 89° East 284 327 7,000 2,667 Climbing FlightAware ADS-B
Fri 03:42:37 AM 39.7764 -75.2421 87° East 286 329 7,500 2,667 Climbing FlightAware ADS-B
Fri 03:42:53 AM 39.7777 -75.2150 86° East 292 336 8,200 2,710 Climbing FlightAware ADS-B
Fri 03:43:08 AM 39.7787 -75.1876 87° East 298 343 8,900 2,800 Climbing FlightAware ADS-B
Fri 03:43:23 AM 39.7796 -75.1598 88° East 301 346 9,600 2,298 Climbing FlightAware ADS-B
Fri 03:43:55 AM 39.7813 -75.1014 88° East 320 368 10,700 1,810 Climbing FlightAware ADS-B
Fri 03:44:26 AM 39.7829 -75.0377 88° East 357 411 11,500 1,905 Climbing FlightAware ADS-B
Fri 03:44:58 AM 39.7852 -74.9666 88° East 378 435 12,700 2,571 Climbing FlightAware ADS-B
Fri 03:45:29 AM 39.7876 -74.8954 87° East 388 447 14,200 2,852 Climbing FlightAware ADS-B
Fri 03:45:59 AM 39.7902 -74.8237 87° East 401 461 15,600 2,750 Climbing FlightAware ADS-B
Fri 03:46:17 AM 39.7919 -74.7791 87° East 405 466 16,400 2,400 Climbing FlightAware ADS-B
Fri 03:46:24 AM 39.7935 -74.7635 82° East 405 466 16,600 2,500 Climbing FlightAware ADS-B
Fri 03:46:29 AM 39.7958 -74.7503 77° East 404 465 16,900 3,000 Climbing FlightAware ADS-B
Fri 03:46:36 AM 39.7997 -74.7357 71° East 401 461 17,200 2,400 Climbing FlightAware ADS-B
Fri 03:46:39 AM 39.8022 -74.7281 67° East 401 461 17,300 2,667 Climbing FlightAware ADS-B
Fri 03:46:45 AM 39.8071 -74.7162 62° Northeast 399 459 17,600 2,667 Climbing FlightAware ADS-B
Fri 03:46:48 AM 39.8101 -74.7101 57° Northeast 398 458 17,700 2,000 Climbing FlightAware ADS-B
Fri 03:46:54 AM 39.8169 -74.6983 53° Northeast 396 456 17,900 2,571 Climbing FlightAware ADS-B
Fri 03:47:09 AM 39.8363 -74.6716 47° Northeast 397 457 18,600 2,400 Climbing FlightAware ADS-B
Fri 03:47:19 AM 39.8487 -74.6566 43° Northeast 397 457 18,900 2,000 Climbing FlightAware ADS-B
Fri 03:47:24 AM 39.8557 -74.6489 40° Northeast 398 458 19,100 2,400 Climbing FlightAware ADS-B
Fri 03:47:54 AM 39.9023 -74.6048 36° Northeast 402 463 20,300 2,300 Climbing FlightAware ADS-B
Fri 03:48:24 AM 39.9476 -74.5637 35° Northeast 409 471 21,400 2,200 Climbing FlightAware ADS-B
Fri 03:48:54 AM 39.9942 -74.5213 35° Northeast 414 476 22,500 1,574 Climbing FlightAware ADS-B
Fri 03:49:25 AM 40.0438 -74.4759 35° Northeast 421 484 23,000 492 Climbing FlightAware ADS-B
Fri 03:49:55 AM 40.0915 -74.4322 35° Northeast 418 481 23,000  Level FlightAware ADS-B
Fri 03:50:35 AM 40.1560 -74.3733 35° Northeast 422 486 23,000  Level FlightAware ADS-B
Fri 03:51:05 AM 40.2025 -74.3306 35° Northeast 418 481 23,000  Level FlightAware ADS-B
Fri 03:51:35 AM 40.2507 -74.2862 35° Northeast 415 478 23,000  Level FlightAware ADS-B
Fri 03:52:05 AM 40.2978 -74.2430 35° Northeast 412 474 23,000  Level FlightAware ADS-B
Fri 03:52:36 AM 40.3456 -74.1990 35° Northeast 411 473 23,000  Level FlightAware ADS-B
Fri 03:53:07 AM 40.3936 -74.1548 35° Northeast 411 473 23,000  Level FlightAware ADS-B
Fri 03:53:33 AM 40.4341 -74.1172 35° Northeast 412 474 23,000  Level FlightAware ADS-B
Fri 03:54:03 AM 40.4816 -74.0733 35° Northeast 412 474 23,000  Level FlightAware ADS-B
Fri 03:54:34 AM 40.5295 -74.0291 35° Northeast 413 475 23,000  Level FlightAware ADS-B
Fri 03:55:04 AM 40.5771 -73.9852 35° Northeast 413 475 23,000  Level FlightAware ADS-B
Fri 03:55:35 AM 40.6248 -73.9412 35° Northeast 412 474 23,000  Level FlightAware ADS-B
Fri 03:56:05 AM 40.6722 -73.8976 35° Northeast 413 475 23,000  Level FlightAware ADS-B
Fri 03:56:35 AM 40.7198 -73.8535 35° Northeast 413 475 23,000  Level FlightAware ADS-B
Fri 03:57:05 AM 40.7671 -73.8095 35° Northeast 413 475 23,000  Level FlightAware ADS-B
Fri 03:57:36 AM 40.8149 -73.7648 35° Northeast 412 474 23,000  Level FlightAware ADS-B
Fri 03:58:06 AM 40.8617 -73.7209 35° Northeast 412 474 23,000  Level FlightAware ADS-B
Fri 03:58:36 AM 40.9090 -73.6764 35° Northeast 411 473 23,000 -295 Level FlightAware ADS-B
Fri 03:59:07 AM 40.9561 -73.6318 36° Northeast 406 467 22,700 -1,082 Descending FlightAware ADS-B
Fri 03:59:37 AM 41.0018 -73.5884 36° Northeast 398 458 21,900 -1,967 Descending FlightAware ADS-B
Fri 04:00:08 AM 41.0469 -73.5455 36° Northeast 394 453 20,700 -2,361 Descending FlightAware ADS-B
Fri 04:00:38 AM 41.0920 -73.5026 36° Northeast 389 448 19,500 -2,300 Descending FlightAware ADS-B
Fri 04:01:08 AM 41.1360 -73.4605 36° Northeast 385 443 18,400 -2,262 Descending FlightAware ADS-B
Fri 04:01:39 AM 41.1803 -73.4181 36° Northeast 380 437 17,200 -2,262 Descending FlightAware ADS-B
Fri 04:02:09 AM 41.2232 -73.3771 36° Northeast 375 432 16,100 -2,095 Descending FlightAware ADS-B
Fri 04:02:42 AM 41.2684 -73.3337 36° Northeast 366 421 15,000 -2,455 Descending FlightAware ADS-B
Fri 04:03:37 AM 41.3410 -73.2640 36° Northeast 373 429 12,500 -1,667 Descending FlightAware ADS-B
Fri 04:04:12 AM 41.3840 -73.2240 35° Northeast 373 429 12,500  Level FlightAware ADS-B
Fri 04:04:52 AM 41.4320 -73.1790 35° Northeast 373 429 12,500  Level FlightAware ADS-B
Fri 04:05:32 AM 41.4800 -73.1340 35° Northeast 373 429 12,500 -2,143 Level FlightAware ADS-B
Fri 04:05:48 AM 41.5042 -73.1164 35° Northeast 293 337 10,500 -3,488 Descending Boston Center
Fri 04:06:15 AM 41.5314 -73.0972 28° Northeast 302 348 10,000 -1,967 Descending Boston Center
Fri 04:06:49 AM 41.5756 -73.0589 33° Northeast 282 325 8,500 -2,500 Descending Boston Center
Fri 04:07:15 AM 41.6028 -73.0369 31° Northeast 273 314 7,500 -2,459 Descending Boston Center
Fri 04:07:50 AM 41.6383 -73.0067 32° Northeast 268 308 6,000 -2,211 Descending Boston Center
Fri 04:08:50 AM 41.7011 -72.9544 32° Northeast 263 303 4,000 -1,240 Descending Boston Center
Fri 04:09:51 AM 41.7556 -72.9103 31° Northeast 236 272 3,500 -496 Descending Boston Center
Fri 04:10:51 AM 41.8078 -72.8661 32° Northeast 207 238 3,000 -397 Descending Boston Center
Fri 04:11:52 AM 41.8392 -72.8219 46° Northeast 162 186 2,700 -492 Descending Boston Center
Fri 04:12:53 AM 41.8664 -72.7886 42° Northeast 142 163 2,000 -744 Descending Boston Center
Fri 04:13:53 AM 41.8936 -72.7497 47° Northeast 134 154 1,200 -744 Descending Boston Center
Fri 04:14:54 AM 41.9228 -72.7164 40° Northeast 135 155 500 -689 Descending Boston Center
Fri 04:16:00 AM 41.9333 -72.6833 29° Northeast  Level FlightAware Approximate
Fri 04:23:00 AM 41.9392 -72.6834 29° Northeast  Level Estimated
Fri 04:24:00 AM 41.9333 -72.6833 29° Northeast  Level FlightAware Approximate
Fri 04:25:00 AM 41.9392 -72.6834 29° Northeast  Level Estimated
Fri 04:26:00 AM 41.9333 -72.6833 29° Northeast  Level FlightAware Approximate
Fri 04:27:00 AM 41.9392 -72.6834 29° Northeast  Level Estimated
Fri 04:28:00 AM 41.9333 -72.6833 29° Northeast  Level FlightAware Approximate

Login

Don't have an account? Register now (free) for customized features, flight alerts, and more!